sensor_id;sensor_type;location;lat;lon;timestamp;P1;durP1;ratioP1;P2;durP2;ratioP2
21519;SDS011;10921;53.614;9.882;2024-03-06T00:01:16;39.93;;;28.70;;
21519;SDS011;10921;53.614;9.882;2024-03-06T00:03:43;37.35;;;27.17;;
21519;SDS011;10921;53.614;9.882;2024-03-06T00:06:09;35.13;;;28.17;;
21519;SDS011;10921;53.614;9.882;2024-03-06T00:08:35;40.30;;;28.20;;
21519;SDS011;10921;53.614;9.882;2024-03-06T00:11:03;37.15;;;26.83;;
21519;SDS011;10921;53.614;9.882;2024-03-06T00:13:30;33.90;;;26.27;;
21519;SDS011;10921;53.614;9.882;2024-03-06T00:15:57;32.95;;;26.02;;
21519;SDS011;10921;53.614;9.882;2024-03-06T00:18:23;40.60;;;27.23;;
21519;SDS011;10921;53.614;9.882;2024-03-06T00:20:50;33.88;;;26.20;;
21519;SDS011;10921;53.614;9.882;2024-03-06T00:23:16;34.53;;;25.23;;
21519;SDS011;10921;53.614;9.882;2024-03-06T00:25:43;31.40;;;26.02;;
21519;SDS011;10921;53.614;9.882;2024-03-06T00:28:09;34.70;;;24.67;;
21519;SDS011;10921;53.614;9.882;2024-03-06T00:30:36;38.35;;;25.92;;
21519;SDS011;10921;53.614;9.882;2024-03-06T00:33:05;31.73;;;24.92;;
21519;SDS011;10921;53.614;9.882;2024-03-06T00:35:32;28.85;;;25.10;;
21519;SDS011;10921;53.614;9.882;2024-03-06T00:37:58;33.75;;;24.52;;
21519;SDS011;10921;53.614;9.882;2024-03-06T00:40:29;31.20;;;25.45;;
21519;SDS011;10921;53.614;9.882;2024-03-06T00:42:58;32.38;;;24.80;;
21519;SDS011;10921;53.614;9.882;2024-03-06T00:45:25;28.50;;;23.63;;
21519;SDS011;10921;53.614;9.882;2024-03-06T00:47:52;27.63;;;23.67;;
21519;SDS011;10921;53.614;9.882;2024-03-06T00:50:18;30.73;;;24.88;;
21519;SDS011;10921;53.614;9.882;2024-03-06T00:52:47;29.52;;;24.92;;
21519;SDS011;10921;53.614;9.882;2024-03-06T00:55:15;31.02;;;24.48;;
21519;SDS011;10921;53.614;9.882;2024-03-06T00:57:41;32.05;;;25.38;;
21519;SDS011;10921;53.614;9.882;2024-03-06T01:00:08;28.85;;;25.02;;
21519;SDS011;10921;53.614;9.882;2024-03-06T01:05:05;28.58;;;23.38;;
21519;SDS011;10921;53.614;9.882;2024-03-06T01:07:33;35.72;;;25.35;;
21519;SDS011;10921;53.614;9.882;2024-03-06T01:10:01;26.77;;;23.88;;
21519;SDS011;10921;53.614;9.882;2024-03-06T01:12:27;31.30;;;24.75;;
21519;SDS011;10921;53.614;9.882;2024-03-06T01:14:54;28.85;;;24.65;;
21519;SDS011;10921;53.614;9.882;2024-03-06T01:17:20;28.25;;;23.92;;
21519;SDS011;10921;53.614;9.882;2024-03-06T01:19:47;29.23;;;26.10;;
21519;SDS011;10921;53.614;9.882;2024-03-06T01:22:13;32.35;;;24.90;;
21519;SDS011;10921;53.614;9.882;2024-03-06T01:24:40;32.72;;;25.70;;
21519;SDS011;10921;53.614;9.882;2024-03-06T01:27:06;27.58;;;24.25;;
21519;SDS011;10921;53.614;9.882;2024-03-06T01:29:33;26.27;;;23.05;;
21519;SDS011;10921;53.614;9.882;2024-03-06T01:32:00;35.42;;;26.30;;
21519;SDS011;10921;53.614;9.882;2024-03-06T01:34:27;33.00;;;26.70;;
21519;SDS011;10921;53.614;9.882;2024-03-06T01:36:53;30.98;;;24.60;;
21519;SDS011;10921;53.614;9.882;2024-03-06T01:39:20;31.55;;;25.60;;
21519;SDS011;10921;53.614;9.882;2024-03-06T01:41:47;32.63;;;25.00;;
21519;SDS011;10921;53.614;9.882;2024-03-06T01:44:14;28.77;;;23.92;;
21519;SDS011;10921;53.614;9.882;2024-03-06T01:46:42;32.38;;;25.33;;
21519;SDS011;10921;53.614;9.882;2024-03-06T01:49:09;34.53;;;25.15;;
21519;SDS011;10921;53.614;9.882;2024-03-06T01:51:36;32.65;;;25.65;;
21519;SDS011;10921;53.614;9.882;2024-03-06T01:54:03;31.58;;;25.17;;
21519;SDS011;10921;53.614;9.882;2024-03-06T01:56:31;37.35;;;24.83;;
21519;SDS011;10921;53.614;9.882;2024-03-06T01:59:00;31.30;;;24.80;;
21519;SDS011;10921;53.614;9.882;2024-03-06T02:01:28;31.08;;;25.23;;
21519;SDS011;10921;53.614;9.882;2024-03-06T02:03:55;32.65;;;25.02;;
21519;SDS011;10921;53.614;9.882;2024-03-06T02:06:22;31.73;;;24.33;;
21519;SDS011;10921;53.614;9.882;2024-03-06T02:08:48;34.00;;;24.75;;
21519;SDS011;10921;53.614;9.882;2024-03-06T02:11:15;30.73;;;24.42;;
21519;SDS011;10921;53.614;9.882;2024-03-06T02:13:44;32.05;;;23.77;;
21519;SDS011;10921;53.614;9.882;2024-03-06T02:16:11;27.58;;;24.02;;
21519;SDS011;10921;53.614;9.882;2024-03-06T02:18:37;29.70;;;23.48;;
21519;SDS011;10921;53.614;9.882;2024-03-06T02:21:16;34.92;;;24.83;;
21519;SDS011;10921;53.614;9.882;2024-03-06T02:23:43;27.90;;;22.77;;
21519;SDS011;10921;53.614;9.882;2024-03-06T02:26:10;28.75;;;23.83;;
21519;SDS011;10921;53.614;9.882;2024-03-06T02:28:37;31.58;;;23.23;;
21519;SDS011;10921;53.614;9.882;2024-03-06T02:31:03;31.35;;;23.90;;
21519;SDS011;10921;53.614;9.882;2024-03-06T02:33:32;29.30;;;24.60;;
21519;SDS011;10921;53.614;9.882;2024-03-06T02:36:00;33.10;;;23.13;;
21519;SDS011;10921;53.614;9.882;2024-03-06T02:38:26;28.92;;;22.95;;
21519;SDS011;10921;53.614;9.882;2024-03-06T02:40:53;29.33;;;22.75;;
21519;SDS011;10921;53.614;9.882;2024-03-06T02:43:20;24.90;;;22.10;;
21519;SDS011;10921;53.614;9.882;2024-03-06T02:45:46;28.10;;;23.20;;
21519;SDS011;10921;53.614;9.882;2024-03-06T02:48:13;24.95;;;22.33;;
21519;SDS011;10921;53.614;9.882;2024-03-06T02:50:39;27.63;;;22.23;;
21519;SDS011;10921;53.614;9.882;2024-03-06T02:53:06;26.63;;;22.67;;
21519;SDS011;10921;53.614;9.882;2024-03-06T02:55:33;25.45;;;22.67;;
21519;SDS011;10921;53.614;9.882;2024-03-06T02:58:03;29.08;;;22.85;;
21519;SDS011;10921;53.614;9.882;2024-03-06T03:02:57;27.42;;;22.40;;
21519;SDS011;10921;53.614;9.882;2024-03-06T03:05:24;24.75;;;22.17;;
21519;SDS011;10921;53.614;9.882;2024-03-06T03:07:51;24.23;;;21.70;;
21519;SDS011;10921;53.614;9.882;2024-03-06T03:10:17;30.70;;;21.75;;
21519;SDS011;10921;53.614;9.882;2024-03-06T03:12:44;26.63;;;21.65;;
21519;SDS011;10921;53.614;9.882;2024-03-06T03:15:11;24.58;;;21.33;;
21519;SDS011;10921;53.614;9.882;2024-03-06T03:17:37;26.15;;;22.75;;
21519;SDS011;10921;53.614;9.882;2024-03-06T03:20:04;32.35;;;21.98;;
21519;SDS011;10921;53.614;9.882;2024-03-06T03:22:37;25.48;;;21.02;;
21519;SDS011;10921;53.614;9.882;2024-03-06T03:25:07;29.00;;;22.23;;
21519;SDS011;10921;53.614;9.882;2024-03-06T03:27:34;26.02;;;21.65;;
21519;SDS011;10921;53.614;9.882;2024-03-06T03:30:03;28.67;;;22.38;;
21519;SDS011;10921;53.614;9.882;2024-03-06T03:32:29;22.80;;;20.63;;
21519;SDS011;10921;53.614;9.882;2024-03-06T03:34:56;29.33;;;21.52;;
21519;SDS011;10921;53.614;9.882;2024-03-06T03:37:23;22.60;;;20.40;;
21519;SDS011;10921;53.614;9.882;2024-03-06T03:39:49;28.02;;;21.90;;
21519;SDS011;10921;53.614;9.882;2024-03-06T03:42:16;23.73;;;21.20;;
21519;SDS011;10921;53.614;9.882;2024-03-06T03:44:43;24.63;;;20.85;;
21519;SDS011;10921;53.614;9.882;2024-03-06T03:47:09;32.00;;;22.00;;
21519;SDS011;10921;53.614;9.882;2024-03-06T03:49:36;24.80;;;21.65;;
21519;SDS011;10921;53.614;9.882;2024-03-06T03:52:03;25.75;;;21.38;;
21519;SDS011;10921;53.614;9.882;2024-03-06T03:54:30;25.40;;;21.60;;
21519;SDS011;10921;53.614;9.882;2024-03-06T03:56:56;24.95;;;22.13;;
21519;SDS011;10921;53.614;9.882;2024-03-06T03:59:25;26.13;;;21.13;;
21519;SDS011;10921;53.614;9.882;2024-03-06T04:01:52;26.83;;;21.67;;
21519;SDS011;10921;53.614;9.882;2024-03-06T04:04:18;29.02;;;22.45;;
21519;SDS011;10921;53.614;9.882;2024-03-06T04:06:45;22.70;;;20.27;;
21519;SDS011;10921;53.614;9.882;2024-03-06T04:09:11;26.08;;;21.13;;
21519;SDS011;10921;53.614;9.882;2024-03-06T04:11:40;22.75;;;20.52;;
21519;SDS011;10921;53.614;9.882;2024-03-06T04:14:07;24.98;;;21.58;;
21519;SDS011;10921;53.614;9.882;2024-03-06T04:16:34;24.27;;;21.65;;
21519;SDS011;10921;53.614;9.882;2024-03-06T04:19:01;23.90;;;21.40;;
21519;SDS011;10921;53.614;9.882;2024-03-06T04:21:27;24.05;;;21.35;;
21519;SDS011;10921;53.614;9.882;2024-03-06T04:23:54;24.50;;;21.15;;
21519;SDS011;10921;53.614;9.882;2024-03-06T04:26:21;25.15;;;21.02;;
21519;SDS011;10921;53.614;9.882;2024-03-06T04:28:48;25.55;;;22.35;;
21519;SDS011;10921;53.614;9.882;2024-03-06T04:31:14;23.58;;;21.08;;
21519;SDS011;10921;53.614;9.882;2024-03-06T04:33:41;24.45;;;21.95;;
21519;SDS011;10921;53.614;9.882;2024-03-06T04:36:09;25.10;;;22.15;;
21519;SDS011;10921;53.614;9.882;2024-03-06T04:38:36;26.08;;;21.75;;
21519;SDS011;10921;53.614;9.882;2024-03-06T04:41:05;32.30;;;21.55;;
21519;SDS011;10921;53.614;9.882;2024-03-06T04:43:32;20.95;;;18.77;;
21519;SDS011;10921;53.614;9.882;2024-03-06T04:45:59;23.48;;;21.00;;
21519;SDS011;10921;53.614;9.882;2024-03-06T04:48:25;24.20;;;21.70;;
21519;SDS011;10921;53.614;9.882;2024-03-06T04:50:52;25.30;;;22.80;;
21519;SDS011;10921;53.614;9.882;2024-03-06T04:53:19;26.90;;;21.95;;
21519;SDS011;10921;53.614;9.882;2024-03-06T04:55:48;24.73;;;21.00;;
21519;SDS011;10921;53.614;9.882;2024-03-06T04:58:15;27.85;;;21.70;;
21519;SDS011;10921;53.614;9.882;2024-03-06T05:00:41;24.08;;;21.67;;
21519;SDS011;10921;53.614;9.882;2024-03-06T05:03:08;23.42;;;21.10;;
21519;SDS011;10921;53.614;9.882;2024-03-06T05:05:52;24.30;;;21.73;;
21519;SDS011;10921;53.614;9.882;2024-03-06T05:08:36;23.45;;;21.15;;
21519;SDS011;10921;53.614;9.882;2024-03-06T05:11:21;25.77;;;23.02;;
21519;SDS011;10921;53.614;9.882;2024-03-06T05:14:05;23.65;;;21.35;;
21519;SDS011;10921;53.614;9.882;2024-03-06T05:16:49;25.90;;;22.52;;
21519;SDS011;10921;53.614;9.882;2024-03-06T05:19:34;25.38;;;22.15;;
21519;SDS011;10921;53.614;9.882;2024-03-06T05:22:18;24.05;;;21.40;;
21519;SDS011;10921;53.614;9.882;2024-03-06T05:25:02;25.55;;;21.73;;
21519;SDS011;10921;53.614;9.882;2024-03-06T05:27:46;24.48;;;21.98;;
21519;SDS011;10921;53.614;9.882;2024-03-06T05:30:30;25.38;;;22.85;;
21519;SDS011;10921;53.614;9.882;2024-03-06T05:33:14;27.20;;;22.50;;
21519;SDS011;10921;53.614;9.882;2024-03-06T05:35:59;25.83;;;22.75;;
21519;SDS011;10921;53.614;9.882;2024-03-06T05:38:44;25.52;;;22.95;;
21519;SDS011;10921;53.614;9.882;2024-03-06T05:41:29;22.40;;;19.65;;
21519;SDS011;10921;53.614;9.882;2024-03-06T05:44:12;23.10;;;20.20;;
21519;SDS011;10921;53.614;9.882;2024-03-06T05:47:00;23.60;;;20.45;;
21519;SDS011;10921;53.614;9.882;2024-03-06T05:49:45;29.50;;;22.45;;
21519;SDS011;10921;53.614;9.882;2024-03-06T05:52:33;29.13;;;22.15;;
21519;SDS011;10921;53.614;9.882;2024-03-06T05:55:20;28.90;;;22.25;;
21519;SDS011;10921;53.614;9.882;2024-03-06T05:58:05;28.48;;;21.30;;
21519;SDS011;10921;53.614;9.882;2024-03-06T06:00:38;32.35;;;23.00;;
21519;SDS011;10921;53.614;9.882;2024-03-06T06:03:07;28.58;;;23.13;;
21519;SDS011;10921;53.614;9.882;2024-03-06T06:05:34;25.30;;;22.63;;
21519;SDS011;10921;53.614;9.882;2024-03-06T06:08:02;33.35;;;22.67;;
21519;SDS011;10921;53.614;9.882;2024-03-06T06:10:29;28.55;;;22.52;;
21519;SDS011;10921;53.614;9.882;2024-03-06T06:12:56;27.02;;;21.98;;
21519;SDS011;10921;53.614;9.882;2024-03-06T06:15:23;25.48;;;21.25;;
21519;SDS011;10921;53.614;9.882;2024-03-06T06:17:49;23.15;;;20.70;;
21519;SDS011;10921;53.614;9.882;2024-03-06T06:20:16;23.10;;;20.70;;
21519;SDS011;10921;53.614;9.882;2024-03-06T06:22:45;25.33;;;21.17;;
21519;SDS011;10921;53.614;9.882;2024-03-06T06:25:11;30.80;;;23.10;;
21519;SDS011;10921;53.614;9.882;2024-03-06T06:27:38;26.60;;;21.80;;
21519;SDS011;10921;53.614;9.882;2024-03-06T06:30:05;32.03;;;21.95;;
21519;SDS011;10921;53.614;9.882;2024-03-06T06:32:37;23.67;;;21.23;;
21519;SDS011;10921;53.614;9.882;2024-03-06T06:35:04;25.55;;;22.88;;
21519;SDS011;10921;53.614;9.882;2024-03-06T06:37:31;24.70;;;22.08;;
21519;SDS011;10921;53.614;9.882;2024-03-06T06:39:58;28.80;;;20.75;;
21519;SDS011;10921;53.614;9.882;2024-03-06T06:42:25;29.52;;;22.67;;
21519;SDS011;10921;53.614;9.882;2024-03-06T06:44:52;27.30;;;21.95;;
21519;SDS011;10921;53.614;9.882;2024-03-06T06:47:19;27.92;;;23.98;;
21519;SDS011;10921;53.614;9.882;2024-03-06T06:49:45;30.33;;;23.23;;
21519;SDS011;10921;53.614;9.882;2024-03-06T06:52:12;26.52;;;23.40;;
21519;SDS011;10921;53.614;9.882;2024-03-06T06:54:38;26.90;;;24.05;;
21519;SDS011;10921;53.614;9.882;2024-03-06T06:57:05;28.33;;;24.73;;
21519;SDS011;10921;53.614;9.882;2024-03-06T06:59:31;30.30;;;24.10;;
21519;SDS011;10921;53.614;9.882;2024-03-06T07:01:58;29.00;;;24.17;;
21519;SDS011;10921;53.614;9.882;2024-03-06T07:04:24;28.83;;;25.00;;
21519;SDS011;10921;53.614;9.882;2024-03-06T07:06:51;31.38;;;24.80;;
21519;SDS011;10921;53.614;9.882;2024-03-06T07:09:18;32.42;;;26.30;;
21519;SDS011;10921;53.614;9.882;2024-03-06T07:11:45;39.10;;;25.20;;
21519;SDS011;10921;53.614;9.882;2024-03-06T07:14:12;29.13;;;25.45;;
21519;SDS011;10921;53.614;9.882;2024-03-06T07:16:42;29.67;;;24.95;;
21519;SDS011;10921;53.614;9.882;2024-03-06T07:19:10;38.70;;;25.92;;
21519;SDS011;10921;53.614;9.882;2024-03-06T07:21:37;32.13;;;26.50;;
21519;SDS011;10921;53.614;9.882;2024-03-06T07:24:04;37.28;;;27.00;;
21519;SDS011;10921;53.614;9.882;2024-03-06T07:26:34;31.27;;;26.75;;
21519;SDS011;10921;53.614;9.882;2024-03-06T07:29:02;30.08;;;25.45;;
21519;SDS011;10921;53.614;9.882;2024-03-06T07:31:29;30.48;;;25.75;;
21519;SDS011;10921;53.614;9.882;2024-03-06T07:33:55;28.67;;;25.65;;
21519;SDS011;10921;53.614;9.882;2024-03-06T07:36:22;33.28;;;26.35;;
21519;SDS011;10921;53.614;9.882;2024-03-06T07:38:48;34.47;;;26.70;;
21519;SDS011;10921;53.614;9.882;2024-03-06T07:41:15;29.55;;;26.45;;
21519;SDS011;10921;53.614;9.882;2024-03-06T07:43:42;29.45;;;26.05;;
21519;SDS011;10921;53.614;9.882;2024-03-06T07:46:09;33.25;;;25.90;;
21519;SDS011;10921;53.614;9.882;2024-03-06T07:48:37;28.50;;;25.40;;
21519;SDS011;10921;53.614;9.882;2024-03-06T07:51:05;32.53;;;26.10;;
21519;SDS011;10921;53.614;9.882;2024-03-06T07:53:31;27.70;;;23.92;;
21519;SDS011;10921;53.614;9.882;2024-03-06T07:55:58;27.23;;;24.42;;
21519;SDS011;10921;53.614;9.882;2024-03-06T07:58:24;29.83;;;23.33;;
21519;SDS011;10921;53.614;9.882;2024-03-06T08:00:52;27.25;;;23.30;;
21519;SDS011;10921;53.614;9.882;2024-03-06T08:03:23;27.63;;;23.67;;
21519;SDS011;10921;53.614;9.882;2024-03-06T08:05:53;25.33;;;22.73;;
21519;SDS011;10921;53.614;9.882;2024-03-06T08:08:20;29.02;;;22.20;;
21519;SDS011;10921;53.614;9.882;2024-03-06T08:10:50;24.95;;;21.58;;
21519;SDS011;10921;53.614;9.882;2024-03-06T08:13:16;29.83;;;24.48;;
21519;SDS011;10921;53.614;9.882;2024-03-06T08:15:45;29.50;;;24.05;;
21519;SDS011;10921;53.614;9.882;2024-03-06T08:18:12;24.90;;;22.27;;
21519;SDS011;10921;53.614;9.882;2024-03-06T08:20:40;26.02;;;23.33;;
21519;SDS011;10921;53.614;9.882;2024-03-06T08:23:08;25.23;;;22.60;;
21519;SDS011;10921;53.614;9.882;2024-03-06T08:25:36;24.45;;;22.00;;
21519;SDS011;10921;53.614;9.882;2024-03-06T08:28:03;25.10;;;22.35;;
21519;SDS011;10921;53.614;9.882;2024-03-06T08:30:31;27.05;;;22.85;;
21519;SDS011;10921;53.614;9.882;2024-03-06T08:32:58;24.67;;;22.27;;
21519;SDS011;10921;53.614;9.882;2024-03-06T08:35:25;26.02;;;22.63;;
21519;SDS011;10921;53.614;9.882;2024-03-06T08:37:52;25.75;;;22.95;;
21519;SDS011;10921;53.614;9.882;2024-03-06T08:40:19;26.02;;;23.35;;
21519;SDS011;10921;53.614;9.882;2024-03-06T08:42:47;25.27;;;22.88;;
21519;SDS011;10921;53.614;9.882;2024-03-06T08:45:18;26.05;;;23.48;;
21519;SDS011;10921;53.614;9.882;2024-03-06T08:47:45;25.98;;;23.38;;
21519;SDS011;10921;53.614;9.882;2024-03-06T08:50:13;25.42;;;22.75;;
21519;SDS011;10921;53.614;9.882;2024-03-06T08:52:40;25.30;;;22.70;;
21519;SDS011;10921;53.614;9.882;2024-03-06T08:55:08;30.23;;;24.75;;
21519;SDS011;10921;53.614;9.882;2024-03-06T08:57:36;23.73;;;21.45;;
21519;SDS011;10921;53.614;9.882;2024-03-06T09:00:04;24.58;;;22.00;;
21519;SDS011;10921;53.614;9.882;2024-03-06T09:02:37;23.70;;;21.45;;
21519;SDS011;10921;53.614;9.882;2024-03-06T09:05:09;23.45;;;21.10;;
21519;SDS011;10921;53.614;9.882;2024-03-06T09:07:37;23.55;;;21.02;;
21519;SDS011;10921;53.614;9.882;2024-03-06T09:10:04;23.88;;;21.05;;
21519;SDS011;10921;53.614;9.882;2024-03-06T09:12:34;23.42;;;21.13;;
21519;SDS011;10921;53.614;9.882;2024-03-06T09:15:01;24.75;;;22.52;;
21519;SDS011;10921;53.614;9.882;2024-03-06T09:17:28;22.92;;;20.60;;
21519;SDS011;10921;53.614;9.882;2024-03-06T09:19:55;28.65;;;25.73;;
21519;SDS011;10921;53.614;9.882;2024-03-06T09:22:35;26.38;;;24.00;;
21519;SDS011;10921;53.614;9.882;2024-03-06T09:25:05;26.17;;;23.73;;
21519;SDS011;10921;53.614;9.882;2024-03-06T09:27:33;27.90;;;24.50;;
21519;SDS011;10921;53.614;9.882;2024-03-06T09:30:00;24.02;;;21.40;;
21519;SDS011;10921;53.614;9.882;2024-03-06T09:32:27;26.45;;;23.95;;
21519;SDS011;10921;53.614;9.882;2024-03-06T09:34:53;25.55;;;23.08;;
21519;SDS011;10921;53.614;9.882;2024-03-06T09:37:20;25.23;;;22.70;;
21519;SDS011;10921;53.614;9.882;2024-03-06T09:39:46;23.88;;;21.48;;
21519;SDS011;10921;53.614;9.882;2024-03-06T09:42:14;26.92;;;24.23;;
21519;SDS011;10921;53.614;9.882;2024-03-06T09:44:41;26.55;;;24.13;;
21519;SDS011;10921;53.614;9.882;2024-03-06T09:47:08;23.27;;;20.83;;
21519;SDS011;10921;53.614;9.882;2024-03-06T09:49:40;25.42;;;23.20;;
21519;SDS011;10921;53.614;9.882;2024-03-06T09:52:07;26.92;;;24.10;;
21519;SDS011;10921;53.614;9.882;2024-03-06T09:54:34;24.88;;;22.65;;
21519;SDS011;10921;53.614;9.882;2024-03-06T09:57:01;27.25;;;24.58;;
21519;SDS011;10921;53.614;9.882;2024-03-06T09:59:27;26.50;;;24.00;;
21519;SDS011;10921;53.614;9.882;2024-03-06T10:01:55;27.55;;;24.58;;
21519;SDS011;10921;53.614;9.882;2024-03-06T10:04:24;28.27;;;25.27;;
21519;SDS011;10921;53.614;9.882;2024-03-06T10:06:55;27.08;;;24.38;;
21519;SDS011;10921;53.614;9.882;2024-03-06T10:09:23;27.05;;;21.90;;
21519;SDS011;10921;53.614;9.882;2024-03-06T10:11:50;29.23;;;26.00;;
21519;SDS011;10921;53.614;9.882;2024-03-06T10:17:05;26.67;;;23.98;;
21519;SDS011;10921;53.614;9.882;2024-03-06T10:19:31;24.13;;;22.05;;
21519;SDS011;10921;53.614;9.882;2024-03-06T10:21:59;26.20;;;22.95;;
21519;SDS011;10921;53.614;9.882;2024-03-06T10:24:26;25.45;;;23.05;;
21519;SDS011;10921;53.614;9.882;2024-03-06T10:26:57;27.20;;;24.52;;
21519;SDS011;10921;53.614;9.882;2024-03-06T10:29:25;25.50;;;22.85;;
21519;SDS011;10921;53.614;9.882;2024-03-06T10:31:55;28.27;;;24.93;;
21519;SDS011;10921;53.614;9.882;2024-03-06T10:34:26;26.13;;;23.55;;
21519;SDS011;10921;53.614;9.882;2024-03-06T10:37:01;25.52;;;22.85;;
21519;SDS011;10921;53.614;9.882;2024-03-06T10:39:33;25.38;;;22.88;;
21519;SDS011;10921;53.614;9.882;2024-03-06T10:42:04;29.45;;;25.58;;
21519;SDS011;10921;53.614;9.882;2024-03-06T10:44:34;27.50;;;24.58;;
21519;SDS011;10921;53.614;9.882;2024-03-06T10:47:05;27.52;;;24.73;;
21519;SDS011;10921;53.614;9.882;2024-03-06T10:49:32;25.75;;;23.25;;
21519;SDS011;10921;53.614;9.882;2024-03-06T10:52:04;28.73;;;25.67;;
21519;SDS011;10921;53.614;9.882;2024-03-06T10:54:33;27.25;;;23.90;;
21519;SDS011;10921;53.614;9.882;2024-03-06T10:57:01;26.75;;;23.98;;
21519;SDS011;10921;53.614;9.882;2024-03-06T10:59:29;26.08;;;23.50;;
21519;SDS011;10921;53.614;9.882;2024-03-06T11:01:56;27.08;;;24.27;;
21519;SDS011;10921;53.614;9.882;2024-03-06T11:04:27;25.65;;;23.15;;
21519;SDS011;10921;53.614;9.882;2024-03-06T11:07:01;25.45;;;22.83;;
21519;SDS011;10921;53.614;9.882;2024-03-06T11:09:29;25.83;;;23.27;;
21519;SDS011;10921;53.614;9.882;2024-03-06T11:12:01;25.63;;;23.13;;
21519;SDS011;10921;53.614;9.882;2024-03-06T11:14:30;25.20;;;21.80;;
21519;SDS011;10921;53.614;9.882;2024-03-06T11:17:01;25.38;;;22.88;;
21519;SDS011;10921;53.614;9.882;2024-03-06T11:28:21;26.02;;;23.27;;
21519;SDS011;10921;53.614;9.882;2024-03-06T11:33:20;26.92;;;23.63;;
21519;SDS011;10921;53.614;9.882;2024-03-06T11:38:59;25.63;;;23.13;;
21519;SDS011;10921;53.614;9.882;2024-03-06T11:44:12;24.92;;;22.35;;
21519;SDS011;10921;53.614;9.882;2024-03-06T11:49:32;25.50;;;22.08;;
21519;SDS011;10921;53.614;9.882;2024-03-06T11:54:29;26.27;;;22.80;;
21519;SDS011;10921;53.614;9.882;2024-03-06T11:56:57;28.63;;;23.40;;
21519;SDS011;10921;53.614;9.882;2024-03-06T12:01:53;28.85;;;25.83;;
21519;SDS011;10921;53.614;9.882;2024-03-06T12:04:21;29.60;;;25.67;;
21519;SDS011;10921;53.614;9.882;2024-03-06T12:06:48;30.85;;;26.48;;
21519;SDS011;10921;53.614;9.882;2024-03-06T12:09:15;26.90;;;23.60;;
21519;SDS011;10921;53.614;9.882;2024-03-06T12:11:42;27.23;;;24.48;;
21519;SDS011;10921;53.614;9.882;2024-03-06T12:14:21;26.02;;;23.42;;
21519;SDS011;10921;53.614;9.882;2024-03-06T12:16:58;25.70;;;22.50;;
21519;SDS011;10921;53.614;9.882;2024-03-06T12:19:27;26.58;;;23.90;;
21519;SDS011;10921;53.614;9.882;2024-03-06T12:21:59;26.27;;;23.77;;
21519;SDS011;10921;53.614;9.882;2024-03-06T12:24:30;25.00;;;22.45;;
21519;SDS011;10921;53.614;9.882;2024-03-06T12:27:01;25.45;;;22.77;;
21519;SDS011;10921;53.614;9.882;2024-03-06T12:29:33;24.85;;;22.38;;
21519;SDS011;10921;53.614;9.882;2024-03-06T12:32:04;24.15;;;21.65;;
21519;SDS011;10921;53.614;9.882;2024-03-06T12:34:43;28.70;;;22.55;;
21519;SDS011;10921;53.614;9.882;2024-03-06T12:37:10;26.00;;;22.63;;
21519;SDS011;10921;53.614;9.882;2024-03-06T12:39:37;23.17;;;20.77;;
21519;SDS011;10921;53.614;9.882;2024-03-06T12:42:09;23.70;;;21.17;;
21519;SDS011;10921;53.614;9.882;2024-03-06T12:44:36;22.90;;;20.80;;
21519;SDS011;10921;53.614;9.882;2024-03-06T12:47:02;25.15;;;21.65;;
21519;SDS011;10921;53.614;9.882;2024-03-06T12:49:29;23.75;;;21.45;;
21519;SDS011;10921;53.614;9.882;2024-03-06T12:51:55;25.08;;;22.42;;
21519;SDS011;10921;53.614;9.882;2024-03-06T12:54:22;30.77;;;23.05;;
21519;SDS011;10921;53.614;9.882;2024-03-06T12:56:49;27.05;;;23.25;;
21519;SDS011;10921;53.614;9.882;2024-03-06T12:59:15;28.67;;;22.05;;
21519;SDS011;10921;53.614;9.882;2024-03-06T13:01:42;24.08;;;21.63;;
21519;SDS011;10921;53.614;9.882;2024-03-06T13:04:08;24.00;;;21.38;;
21519;SDS011;10921;53.614;9.882;2024-03-06T13:06:38;27.38;;;22.23;;
21519;SDS011;10921;53.614;9.882;2024-03-06T13:09:06;24.90;;;22.20;;
21519;SDS011;10921;53.614;9.882;2024-03-06T13:11:33;23.85;;;21.15;;
21519;SDS011;10921;53.614;9.882;2024-03-06T13:14:00;22.58;;;20.23;;
21519;SDS011;10921;53.614;9.882;2024-03-06T13:16:27;25.85;;;23.13;;
21519;SDS011;10921;53.614;9.882;2024-03-06T13:18:54;25.55;;;23.00;;
21519;SDS011;10921;53.614;9.882;2024-03-06T13:21:23;24.85;;;22.25;;
21519;SDS011;10921;53.614;9.882;2024-03-06T13:23:49;24.25;;;21.85;;
21519;SDS011;10921;53.614;9.882;2024-03-06T13:26:16;23.95;;;21.48;;
21519;SDS011;10921;53.614;9.882;2024-03-06T13:28:44;24.80;;;22.10;;
21519;SDS011;10921;53.614;9.882;2024-03-06T13:31:12;23.90;;;21.60;;
21519;SDS011;10921;53.614;9.882;2024-03-06T13:33:39;23.30;;;21.00;;
21519;SDS011;10921;53.614;9.882;2024-03-06T13:36:06;22.55;;;20.25;;
21519;SDS011;10921;53.614;9.882;2024-03-06T13:38:34;22.27;;;19.80;;
21519;SDS011;10921;53.614;9.882;2024-03-06T13:41:01;25.50;;;23.10;;
21519;SDS011;10921;53.614;9.882;2024-03-06T13:45:58;23.55;;;20.30;;
21519;SDS011;10921;53.614;9.882;2024-03-06T13:48:25;23.40;;;21.17;;
21519;SDS011;10921;53.614;9.882;2024-03-06T13:50:52;22.42;;;20.02;;
21519;SDS011;10921;53.614;9.882;2024-03-06T13:53:18;22.80;;;20.52;;
21519;SDS011;10921;53.614;9.882;2024-03-06T13:55:45;21.85;;;19.63;;
21519;SDS011;10921;53.614;9.882;2024-03-06T13:58:12;24.15;;;21.13;;
21519;SDS011;10921;53.614;9.882;2024-03-06T14:00:38;23.50;;;21.17;;
21519;SDS011;10921;53.614;9.882;2024-03-06T14:03:05;24.77;;;22.38;;
21519;SDS011;10921;53.614;9.882;2024-03-06T14:05:32;24.70;;;22.33;;
21519;SDS011;10921;53.614;9.882;2024-03-06T14:07:58;21.77;;;19.77;;
21519;SDS011;10921;53.614;9.882;2024-03-06T14:10:25;23.98;;;21.58;;
21519;SDS011;10921;53.614;9.882;2024-03-06T14:12:52;25.95;;;23.33;;
21519;SDS011;10921;53.614;9.882;2024-03-06T14:15:21;25.55;;;22.83;;
21519;SDS011;10921;53.614;9.882;2024-03-06T14:17:49;25.17;;;22.67;;
21519;SDS011;10921;53.614;9.882;2024-03-06T14:20:16;22.08;;;19.92;;
21519;SDS011;10921;53.614;9.882;2024-03-06T14:22:43;20.67;;;18.48;;
21519;SDS011;10921;53.614;9.882;2024-03-06T14:25:10;22.50;;;19.48;;
21519;SDS011;10921;53.614;9.882;2024-03-06T14:27:37;21.42;;;19.30;;
21519;SDS011;10921;53.614;9.882;2024-03-06T14:30:04;21.90;;;19.90;;
21519;SDS011;10921;53.614;9.882;2024-03-06T14:32:33;23.98;;;21.13;;
21519;SDS011;10921;53.614;9.882;2024-03-06T14:35:00;22.20;;;20.23;;
21519;SDS011;10921;53.614;9.882;2024-03-06T14:37:27;26.15;;;22.52;;
21519;SDS011;10921;53.614;9.882;2024-03-06T14:39:54;21.15;;;19.35;;
21519;SDS011;10921;53.614;9.882;2024-03-06T14:42:21;22.55;;;20.20;;
21519;SDS011;10921;53.614;9.882;2024-03-06T14:44:49;21.63;;;19.38;;
21519;SDS011;10921;53.614;9.882;2024-03-06T14:47:16;22.00;;;19.85;;
21519;SDS011;10921;53.614;9.882;2024-03-06T14:49:42;21.83;;;19.73;;
21519;SDS011;10921;53.614;9.882;2024-03-06T14:52:12;22.00;;;19.77;;
21519;SDS011;10921;53.614;9.882;2024-03-06T14:54:39;21.70;;;19.52;;
21519;SDS011;10921;53.614;9.882;2024-03-06T14:57:10;23.33;;;20.92;;
21519;SDS011;10921;53.614;9.882;2024-03-06T14:59:38;23.83;;;21.33;;
21519;SDS011;10921;53.614;9.882;2024-03-06T15:02:05;23.92;;;20.77;;
21519;SDS011;10921;53.614;9.882;2024-03-06T15:04:32;23.10;;;20.80;;